EDDF Airport Information

Runway Information
Runway 07C Length 13123 ft width 197 ft
Elevation 329 ft Threshold 0 ft Heading 70
Runway 25C Length 13123 ft Width 197 ft
Elevation 364 ft Threshold 0 ft Heading 250
Runway 07L Length 9186 ft width 148 ft
Elevation 305 ft Threshold 0 ft Heading 70
Runway 25R Length 9186 ft Width 148 ft
Elevation 353 ft Threshold 0 ft Heading 250
Runway 07R Length 13123 ft width 148 ft
Elevation 328 ft Threshold 0 ft Heading 70
Runway 25L Length 13123 ft Width 148 ft
Elevation 362 ft Threshold 0 ft Heading 250
Runway 18 Length 13123 ft width 148 ft
Elevation 326 ft Threshold 0 ft Heading 180
Runway 36 Length 13123 ft Width 148 ft
Elevation 316 ft Threshold 0 ft Heading 360
Airport Frequencies
Type A/D Name LANGEN RAD Frequency 118.45 MHZ
Type A/D Name LANGEN RAD Frequency 127.275 MHZ
Type AFIS Name LANGEN INF Frequency 119.15 MHZ
Type ATIS Name ATIS Frequency 118.025 MHZ
Type CLD Name DELIVERY Frequency 121.9 MHZ
Type DIR Name DIR Frequency 124.2 MHZ
Type GND Name GND Frequency 121.8 MHZ
Type RMP Name APN Frequency 121.7 MHZ
Type TWR Name TWR Frequency 119.9 MHZ
Airport Navaids
Type VORTAC Name Frankfurt Frequency 114200 KHZ
Type NDB Name Frankfurt Frequency 297 KHZ
Type DME Name Frankfurt Frequency 115900 KHZ
Type NDB Name Frankfurt Frequency 382 KHZ
Airport Weather Information & NOTAM

Deprecated: The each() function is deprecated. This message will be suppressed on further calls in /home/customer/www/peakairlines.org/public_html/lib/functions.php on line 141
ADDS - METARS form results

(2104 UTC 20 September 2020)
Data provider http://aviationweather.gov/metar/data/
 
METAR text: EDDF 202050Z 02011KT CAVOK 18/06 Q1016 NOSIG
Conditions at: EDDF (FRANKFURT MAIN A, DE) observed 2050 UTC 20 September 2020
Temperature: 18.0°C (64°F)
Dewpoint: 6.0°C (43°F) [RH = 45%]
Pressure (altimeter): 30.00 inches Hg (1016.0 mb)
Winds: from the NNE (20 degrees) at 13 MPH (11 knots; 5.7 m/s)
Visibility: 6 or more miles (10+ km)
Ceiling: ceiling and visibility are OK
Clouds: unknown
Weather: no significant weather observed at this time

METAR text: EDDF 202020Z 02010KT CAVOK 19/06 Q1016 NOSIG
Conditions at: EDDF (FRANKFURT MAIN A, DE) observed 2020 UTC 20 September 2020
Temperature: 19.0°C (66°F)
Dewpoint: 6.0°C (43°F) [RH = 43%]
Pressure (altimeter): 30.00 inches Hg (1016.0 mb)
Winds: from the NNE (20 degrees) at 12 MPH (10 knots; 5.1 m/s)
Visibility: 6 or more miles (10+ km)
Ceiling: ceiling and visibility are OK
Clouds: unknown
Weather: no significant weather observed at this time

Forecast for: EDDF (FRANKFURT MAIN A, DE)
Text: TAF EDDF 201700Z 2018/2124 03006KT CAVOK
Forecast period: 1800 UTC 20 September 2020 to 0000 UTC 22 September 2020
Forecast type: FROM: standard forecast or significant change
Winds: from the NNE (30 degrees) at 7 MPH (6 knots; 3.1 m/s)
Visibility: 6 or more miles (10+ km)
Ceiling: unknown
Clouds: missing
Weather: NSW  (no significant weather)